Time;durP1;ratioP1;P1;durP2;ratioP2;P2;SDS_P1;SDS_P2;PMS_P1;PMS_P2;Temp;Humidity;BMP_temperature;BMP_pressure;BME280_temperature;BME280_humidity;BME280_pressure;Samples;Min_cycle;Max_cycle;Signal;HPM_P1;HPM_P2
2021/12/15 00:02:19;;;;;;;4.68;3.83;;;;;;;;;;4999450;28;20034;-75
2021/12/15 00:04:46;;;;;;;4.43;3.90;;;;;;;;;;4999990;28;20014;-77
2021/12/15 00:07:12;;;;;;;5.55;4.38;;;;;;;;;;5005214;28;20029;-75
2021/12/15 00:09:38;;;;;;;5.25;3.85;;;;;;;;;;5005200;28;20094;-74
2021/12/15 00:12:05;;;;;;;4.82;3.60;;;;;;;;;;4998978;28;20030;-76
2021/12/15 00:14:33;;;;;;;6.03;4.03;;;;;;;;;;4999442;28;20381;-76
2021/12/15 00:16:59;;;;;;;5.68;3.60;;;;;;;;;;4999086;28;20030;-73
2021/12/15 00:19:27;;;;;;;4.80;3.63;;;;;;;;;;4999047;28;20390;-77
2021/12/15 00:21:53;;;;;;;3.75;3.30;;;;;;;;;;5000235;28;20033;-76
2021/12/15 00:24:19;;;;;;;4.57;3.60;;;;;;;;;;4998800;28;20042;-75
2021/12/15 00:26:45;;;;;;;4.63;3.75;;;;;;;;;;4999205;28;20066;-76
2021/12/15 00:29:12;;;;;;;4.55;3.67;;;;;;;;;;4997614;28;20081;-74
2021/12/15 00:31:38;;;;;;;4.20;3.33;;;;;;;;;;4999287;28;20053;-73
2021/12/15 00:34:07;;;;;;;5.43;3.65;;;;;;;;;;4998573;28;20035;-75
2021/12/15 00:36:33;;;;;;;6.28;4.30;;;;;;;;;;4998544;28;20026;-76
2021/12/15 00:38:59;;;;;;;5.18;4.13;;;;;;;;;;4998530;28;20030;-76
2021/12/15 00:41:26;;;;;;;5.88;4.15;;;;;;;;;;4998629;28;20105;-74
2021/12/15 00:43:52;;;;;;;7.80;4.32;;;;;;;;;;4998511;28;20370;-75
2021/12/15 00:46:18;;;;;;;6.20;3.92;;;;;;;;;;5007591;28;20030;-75
2021/12/15 00:48:45;;;;;;;5.57;3.50;;;;;;;;;;4998285;28;20478;-73
2021/12/15 00:51:11;;;;;;;4.88;4.35;;;;;;;;;;5001219;28;20033;-74
2021/12/15 00:53:37;;;;;;;5.38;4.38;;;;;;;;;;5000004;28;20105;-75
2021/12/15 00:56:04;;;;;;;4.20;3.80;;;;;;;;;;5001516;28;20097;-73
2021/12/15 00:58:30;;;;;;;5.07;3.40;;;;;;;;;;5004203;28;20031;-74
2021/12/15 01:00:59;;;;;;;4.72;3.40;;;;;;;;;;4997203;28;20054;-74
2021/12/15 01:03:25;;;;;;;3.83;3.40;;;;;;;;;;4998480;28;20053;-76
2021/12/15 01:05:53;;;;;;;3.47;3.05;;;;;;;;;;4998499;28;20073;-75
2021/12/15 01:08:24;;;;;;;4.45;3.17;;;;;;;;;;4998177;28;20053;-76
2021/12/15 01:11:10;;;;;;;4.43;3.00;;;;;;;;;;4999549;28;20517;-76
2021/12/15 01:21:55;;;;;;;3.08;2.63;;;;;;;;;;5002913;28;20087;-74
2021/12/15 01:24:21;;;;;;;3.78;2.97;;;;;;;;;;4998464;28;20045;-74
2021/12/15 01:26:47;;;;;;;3.50;2.70;;;;;;;;;;4997971;28;20022;-74
2021/12/15 01:29:13;;;;;;;3.10;2.80;;;;;;;;;;5001228;28;20408;-75
2021/12/15 01:31:40;;;;;;;3.25;2.50;;;;;;;;;;5003311;28;20026;-74
2021/12/15 01:34:06;;;;;;;3.00;2.63;;;;;;;;;;4997503;28;20038;-73
2021/12/15 01:36:32;;;;;;;3.78;2.60;;;;;;;;;;5004558;28;20027;-74
2021/12/15 01:38:58;;;;;;;4.15;2.50;;;;;;;;;;5001441;28;20029;-75
2021/12/15 01:41:24;;;;;;;3.20;2.40;;;;;;;;;;4988899;28;20049;-74
2021/12/15 01:49:21;;;;;;;2.60;2.40;;;;;;;;;;4998678;28;20512;-74
2021/12/15 01:51:47;;;;;;;3.20;2.33;;;;;;;;;;4998092;28;20037;-72
2021/12/15 01:54:15;;;;;;;3.13;2.30;;;;;;;;;;4996643;28;20544;-74
2021/12/15 01:56:42;;;;;;;6.18;2.45;;;;;;;;;;4997947;28;20023;-74
2021/12/15 01:59:08;;;;;;;2.83;2.53;;;;;;;;;;5006556;28;20539;-75
2021/12/15 02:01:34;;;;;;;9.75;2.53;;;;;;;;;;4996191;28;20031;-76
2021/12/15 02:04:01;;;;;;;5.90;2.17;;;;;;;;;;4997230;28;20031;-76
2021/12/15 02:06:27;;;;;;;2.25;2.00;;;;;;;;;;4997147;28;20073;-75
2021/12/15 02:08:53;;;;;;;2.10;1.90;;;;;;;;;;4997051;28;20030;-74
2021/12/15 02:11:20;;;;;;;4.15;2.15;;;;;;;;;;4995906;28;20041;-74
2021/12/15 02:13:46;;;;;;;2.70;1.98;;;;;;;;;;4998151;28;20030;-74
2021/12/15 02:16:12;;;;;;;3.30;2.03;;;;;;;;;;4998556;28;20497;-73
2021/12/15 02:18:45;;;;;;;2.22;2.00;;;;;;;;;;4996923;28;20026;-75
2021/12/15 02:21:14;;;;;;;2.67;1.83;;;;;;;;;;4996739;28;20084;-75
2021/12/15 02:23:45;;;;;;;6.90;2.15;;;;;;;;;;4997189;28;20038;-74
2021/12/15 02:26:23;;;;;;;5.50;1.90;;;;;;;;;;4996865;28;20101;-75
2021/12/15 02:28:57;;;;;;;4.13;1.85;;;;;;;;;;4998373;28;20023;-74
2021/12/15 02:31:41;;;;;;;2.15;1.92;;;;;;;;;;4998000;28;20030;-75
2021/12/15 02:39:39;;;;;;;1.98;1.60;;;;;;;;;;4997138;28;20057;-75
2021/12/15 02:42:06;;;;;;;3.22;2.17;;;;;;;;;;4996620;28;20065;-73
2021/12/15 02:44:32;;;;;;;5.03;1.98;;;;;;;;;;5000549;28;20030;-74
2021/12/15 02:46:58;;;;;;;3.20;2.38;;;;;;;;;;5003266;28;20531;-72
2021/12/15 02:49:27;;;;;;;2.88;1.90;;;;;;;;;;4997599;28;20029;-75
2021/12/15 02:51:54;;;;;;;2.92;1.80;;;;;;;;;;5008716;28;20032;-74
2021/12/15 02:54:24;;;;;;;2.25;1.60;;;;;;;;;;4997215;28;20097;-73
2021/12/15 02:56:53;;;;;;;1.90;1.70;;;;;;;;;;4997695;28;20532;-72
2021/12/15 02:59:21;;;;;;;4.25;1.90;;;;;;;;;;4996244;28;20035;-72
2021/12/15 03:04:31;;;;;;;3.50;1.95;;;;;;;;;;4997009;28;20044;-73
2021/12/15 03:07:09;;;;;;;2.03;1.42;;;;;;;;;;4996243;28;20029;-73
2021/12/15 03:18:14;;;;;;;2.97;2.00;;;;;;;;;;4996376;28;20096;-74
2021/12/15 03:20:47;;;;;;;2.45;1.70;;;;;;;;;;4979955;28;20030;-74
2021/12/15 03:23:14;;;;;;;4.63;1.90;;;;;;;;;;4995951;28;20076;-73
2021/12/15 03:25:40;;;;;;;2.78;1.80;;;;;;;;;;5000322;28;20057;-74
2021/12/15 03:39:21;;;;;;;2.53;1.90;;;;;;;;;;5002072;28;20041;-75
2021/12/15 03:41:52;;;;;;;3.42;2.00;;;;;;;;;;4996242;28;20086;-76
2021/12/15 03:44:18;;;;;;;5.05;1.98;;;;;;;;;;4995753;28;20333;-75
2021/12/15 03:46:45;;;;;;;5.68;2.17;;;;;;;;;;4995749;28;20058;-75
2021/12/15 03:49:11;;;;;;;2.58;1.88;;;;;;;;;;4999851;28;20054;-74
2021/12/15 03:51:37;;;;;;;2.33;1.75;;;;;;;;;;4996293;28;20073;-75
2021/12/15 03:54:05;;;;;;;2.75;1.67;;;;;;;;;;4995284;28;20031;-73
2021/12/15 03:56:35;;;;;;;2.25;1.77;;;;;;;;;;4991964;28;20134;-74
2021/12/15 03:59:01;;;;;;;1.90;1.67;;;;;;;;;;4995665;28;20027;-76
2021/12/15 04:01:27;;;;;;;2.72;1.70;;;;;;;;;;4995714;28;20392;-76
2021/12/15 04:03:54;;;;;;;2.53;1.90;;;;;;;;;;4995760;28;20367;-73
2021/12/15 04:06:27;;;;;;;3.55;3.05;;;;;;;;;;4995529;28;20031;-75
2021/12/15 04:08:53;;;;;;;4.50;1.63;;;;;;;;;;4995052;28;20018;-74
2021/12/15 04:11:20;;;;;;;7.55;2.42;;;;;;;;;;5000632;28;20564;-75
2021/12/15 04:13:47;;;;;;;2.80;1.83;;;;;;;;;;5001012;28;20035;-74
2021/12/15 04:16:38;;;;;;;2.90;1.85;;;;;;;;;;4995290;28;20164;-73
2021/12/15 04:19:03;;;;;;;6.38;2.22;;;;;;;;;;4995302;28;20117;-73
2021/12/15 04:21:29;;;;;;;4.57;2.30;;;;;;;;;;5004164;28;20529;-76
2021/12/15 04:23:56;;;;;;;3.65;1.60;;;;;;;;;;4998690;28;20375;-74
2021/12/15 04:26:23;;;;;;;2.80;2.60;;;;;;;;;;4998865;28;20481;-74
2021/12/15 04:28:49;;;;;;;3.08;1.77;;;;;;;;;;4997199;28;20121;-74
2021/12/15 04:31:17;;;;;;;3.42;1.80;;;;;;;;;;4997850;28;20080;-74
2021/12/15 04:33:56;;;;;;;2.20;2.00;;;;;;;;;;4998989;28;20385;-74
2021/12/15 04:36:24;;;;;;;6.20;2.40;;;;;;;;;;4999911;28;20411;-74
2021/12/15 04:38:50;;;;;;;2.67;1.67;;;;;;;;;;4999407;28;20030;-75
2021/12/15 04:41:19;;;;;;;1.70;1.60;;;;;;;;;;4999301;28;20034;-74
2021/12/15 04:44:00;;;;;;;4.22;2.08;;;;;;;;;;5000898;28;20480;-72
2021/12/15 04:46:28;;;;;;;2.33;1.63;;;;;;;;;;5000694;28;20538;-74
2021/12/15 04:48:54;;;;;;;4.07;2.20;;;;;;;;;;5016394;28;20098;-75
2021/12/15 04:51:21;;;;;;;3.55;2.00;;;;;;;;;;5008367;28;20026;-75
2021/12/15 04:53:47;;;;;;;4.38;1.80;;;;;;;;;;4998703;28;20489;-75
2021/12/15 04:56:13;;;;;;;3.45;1.95;;;;;;;;;;5009013;28;20408;-75
2021/12/15 04:58:40;;;;;;;2.97;2.38;;;;;;;;;;4998960;28;20110;-75
2021/12/15 05:01:09;;;;;;;3.10;1.80;;;;;;;;;;4998142;28;20026;-73
2021/12/15 05:03:38;;;;;;;5.40;1.92;;;;;;;;;;4998186;28;20405;-74
2021/12/15 05:06:05;;;;;;;3.45;1.98;;;;;;;;;;4997660;28;20493;-74
2021/12/15 05:08:31;;;;;;;4.05;2.28;;;;;;;;;;5003999;28;20022;-75
2021/12/15 05:10:59;;;;;;;4.25;2.00;;;;;;;;;;4998111;28;20029;-75
2021/12/15 05:13:25;;;;;;;3.28;1.83;;;;;;;;;;4997930;28;20030;-75
2021/12/15 05:15:51;;;;;;;3.78;1.67;;;;;;;;;;4998187;28;20086;-77
2021/12/15 05:18:17;;;;;;;5.30;1.88;;;;;;;;;;4997580;28;20029;-75
2021/12/15 05:20:48;;;;;;;3.35;2.00;;;;;;;;;;4998020;28;20025;-75
2021/12/15 05:23:16;;;;;;;4.03;2.17;;;;;;;;;;4998155;28;20025;-75
2021/12/15 05:25:42;;;;;;;2.60;1.80;;;;;;;;;;4998028;28;20018;-75
2021/12/15 05:28:08;;;;;;;2.78;1.90;;;;;;;;;;4997934;28;20037;-73
2021/12/15 05:30:35;;;;;;;4.22;1.80;;;;;;;;;;4997651;28;20108;-74
2021/12/15 05:33:01;;;;;;;5.32;2.15;;;;;;;;;;4997799;28;20022;-77
2021/12/15 05:35:27;;;;;;;3.60;2.42;;;;;;;;;;4997718;28;20430;-73
2021/12/15 05:37:55;;;;;;;3.78;1.95;;;;;;;;;;4997299;28;20085;-75
2021/12/15 05:40:22;;;;;;;2.58;1.70;;;;;;;;;;4995824;28;20101;-75
2021/12/15 05:42:48;;;;;;;4.28;2.20;;;;;;;;;;4997685;28;20030;-76
2021/12/15 05:45:14;;;;;;;4.82;1.80;;;;;;;;;;5006435;28;20061;-76
2021/12/15 05:47:40;;;;;;;7.32;1.95;;;;;;;;;;4997415;28;20026;-76
2021/12/15 05:50:08;;;;;;;3.85;2.00;;;;;;;;;;4997405;28;20031;-77
2021/12/15 05:52:34;;;;;;;4.68;1.92;;;;;;;;;;4985677;28;20076;-75
2021/12/15 05:55:02;;;;;;;7.03;2.03;;;;;;;;;;5010589;28;20417;-75
2021/12/15 05:57:28;;;;;;;5.82;1.73;;;;;;;;;;4999992;28;20026;-76
2021/12/15 05:59:54;;;;;;;2.15;1.70;;;;;;;;;;4997225;28;20109;-76
2021/12/15 06:02:21;;;;;;;3.42;1.80;;;;;;;;;;4995313;28;20035;-75
2021/12/15 06:04:47;;;;;;;4.18;2.13;;;;;;;;;;4998378;28;20031;-76
2021/12/15 06:07:13;;;;;;;3.65;2.15;;;;;;;;;;4996917;28;20026;-76
2021/12/15 06:09:39;;;;;;;4.10;2.20;;;;;;;;;;4996954;28;20026;-76
2021/12/15 06:12:05;;;;;;;3.13;2.00;;;;;;;;;;4997959;28;20062;-76
2021/12/15 06:14:31;;;;;;;2.35;1.80;;;;;;;;;;4997087;28;20022;-75
2021/12/15 06:16:59;;;;;;;4.03;1.70;;;;;;;;;;4996589;28;20034;-76
2021/12/15 06:19:26;;;;;;;3.50;1.80;;;;;;;;;;4996649;28;20030;-75
2021/12/15 06:21:52;;;;;;;3.50;2.00;;;;;;;;;;4997001;28;20030;-74
2021/12/15 06:24:18;;;;;;;3.65;2.00;;;;;;;;;;5000889;28;20040;-73
2021/12/15 06:26:44;;;;;;;4.13;1.90;;;;;;;;;;4998876;28;20516;-76
2021/12/15 06:29:10;;;;;;;3.17;1.88;;;;;;;;;;4997024;28;20097;-75
2021/12/15 06:31:38;;;;;;;4.95;1.88;;;;;;;;;;4995449;28;20085;-75
2021/12/15 06:34:04;;;;;;;9.98;2.08;;;;;;;;;;4996506;28;20038;-75
2021/12/15 06:36:30;;;;;;;2.17;1.85;;;;;;;;;;4996674;28;20050;-76
2021/12/15 06:38:57;;;;;;;3.55;2.15;;;;;;;;;;4996664;28;20024;-75
2021/12/15 06:41:23;;;;;;;5.10;1.83;;;;;;;;;;4996367;28;20062;-76
2021/12/15 06:43:54;;;;;;;5.75;1.98;;;;;;;;;;5003919;28;20081;-76
2021/12/15 06:57:34;;;;;;;4.72;2.63;;;;;;;;;;4997331;28;20045;-73
2021/12/15 07:00:01;;;;;;;3.30;2.08;;;;;;;;;;4996085;28;20034;-76
2021/12/15 07:02:27;;;;;;;4.40;2.10;;;;;;;;;;4995683;28;20109;-76
2021/12/15 07:04:53;;;;;;;2.47;1.70;;;;;;;;;;4995945;28;20037;-73
2021/12/15 07:07:19;;;;;;;3.40;1.67;;;;;;;;;;4999662;28;20045;-75
2021/12/15 07:09:45;;;;;;;6.95;2.20;;;;;;;;;;5001831;28;20026;-75
2021/12/15 07:12:11;;;;;;;4.07;1.90;;;;;;;;;;4996040;28;20026;-74
2021/12/15 07:14:37;;;;;;;6.50;2.85;;;;;;;;;;4997813;28;20026;-76
2021/12/15 07:17:09;;;;;;;5.05;1.90;;;;;;;;;;4996344;28;20092;-73
2021/12/15 07:19:52;;;;;;;4.13;1.80;;;;;;;;;;4996204;28;20058;-74
2021/12/15 07:22:43;;;;;;;3.45;1.88;;;;;;;;;;4995815;28;20041;-74
2021/12/15 07:25:10;;;;;;;3.38;1.92;;;;;;;;;;4999917;28;20030;-75
2021/12/15 07:27:36;;;;;;;3.85;2.30;;;;;;;;;;4995712;28;20023;-73
2021/12/15 07:30:04;;;;;;;4.28;1.98;;;;;;;;;;4995830;28;20054;-74
2021/12/15 07:32:30;;;;;;;3.45;1.98;;;;;;;;;;4998506;28;20409;-75
2021/12/15 07:34:57;;;;;;;3.75;2.15;;;;;;;;;;4995794;28;20031;-75
2021/12/15 07:37:23;;;;;;;4.18;2.20;;;;;;;;;;4995633;28;20030;-75
2021/12/15 07:39:58;;;;;;;4.40;2.10;;;;;;;;;;4995378;28;20054;-75
2021/12/15 07:42:33;;;;;;;8.35;2.20;;;;;;;;;;4995278;28;20122;-74
2021/12/15 07:44:59;;;;;;;5.95;2.42;;;;;;;;;;4995882;28;20109;-73
2021/12/15 07:47:25;;;;;;;5.15;2.65;;;;;;;;;;4997711;28;20053;-75
2021/12/15 07:49:52;;;;;;;4.75;2.25;;;;;;;;;;4995462;28;20496;-75
2021/12/15 07:52:18;;;;;;;3.53;1.75;;;;;;;;;;5000646;28;20026;-75
2021/12/15 07:54:44;;;;;;;3.90;2.47;;;;;;;;;;4996419;28;20512;-75
2021/12/15 07:57:16;;;;;;;4.40;1.88;;;;;;;;;;5004115;28;20034;-74
2021/12/15 07:59:42;;;;;;;3.42;1.90;;;;;;;;;;5000899;28;20030;-75
2021/12/15 08:02:08;;;;;;;3.47;2.00;;;;;;;;;;5009930;28;20026;-73
2021/12/15 08:04:34;;;;;;;7.90;2.13;;;;;;;;;;4998742;28;20532;-76
2021/12/15 08:07:00;;;;;;;5.88;1.92;;;;;;;;;;5000368;28;20093;-74
2021/12/15 08:09:26;;;;;;;5.65;1.80;;;;;;;;;;4995485;28;20015;-76
2021/12/15 08:11:52;;;;;;;6.93;2.20;;;;;;;;;;5007805;28;20018;-75
2021/12/15 08:14:18;;;;;;;8.10;2.00;;;;;;;;;;4991152;28;20026;-74
2021/12/15 08:16:44;;;;;;;4.03;1.80;;;;;;;;;;4988295;28;20033;-72
2021/12/15 08:19:15;;;;;;;6.32;1.90;;;;;;;;;;5001728;28;20029;-73
2021/12/15 08:21:41;;;;;;;4.57;2.72;;;;;;;;;;5017028;28;20109;-76
2021/12/15 08:24:07;;;;;;;3.03;1.70;;;;;;;;;;5012302;28;20064;-74
2021/12/15 08:26:33;;;;;;;4.75;2.03;;;;;;;;;;4999028;28;20023;-76
2021/12/15 08:28:59;;;;;;;4.18;1.90;;;;;;;;;;5004886;28;20036;-75
2021/12/15 08:31:25;;;;;;;4.68;1.90;;;;;;;;;;5003298;28;20030;-73
2021/12/15 08:33:51;;;;;;;3.83;2.00;;;;;;;;;;4987419;28;20027;-75
2021/12/15 08:36:18;;;;;;;3.10;1.95;;;;;;;;;;4997119;28;20392;-75
2021/12/15 08:38:45;;;;;;;4.65;1.70;;;;;;;;;;5004082;28;20022;-75
2021/12/15 08:41:19;;;;;;;6.40;2.08;;;;;;;;;;4987413;28;20027;-78
2021/12/15 08:43:45;;;;;;;7.88;1.95;;;;;;;;;;5016735;28;20034;-72
2021/12/15 08:46:18;;;;;;;2.47;1.80;;;;;;;;;;4996180;28;20040;-72
2021/12/15 08:48:45;;;;;;;4.50;2.10;;;;;;;;;;4998878;28;20053;-72
2021/12/15 08:51:12;;;;;;;2.97;1.70;;;;;;;;;;5028852;28;20144;-73
2021/12/15 08:53:41;;;;;;;3.13;2.30;;;;;;;;;;5027501;28;20037;-75
2021/12/15 08:56:07;;;;;;;5.28;1.95;;;;;;;;;;5027900;28;20042;-72
2021/12/15 08:58:33;;;;;;;6.00;1.98;;;;;;;;;;5028447;28;20021;-73
2021/12/15 09:01:00;;;;;;;4.35;2.22;;;;;;;;;;5012896;28;20038;-74
2021/12/15 09:03:27;;;;;;;3.28;2.15;;;;;;;;;;5014396;28;20033;-72
2021/12/15 09:05:55;;;;;;;5.25;2.03;;;;;;;;;;5027986;28;20021;-72
2021/12/15 09:08:23;;;;;;;5.65;2.22;;;;;;;;;;5027491;28;20477;-73
2021/12/15 09:10:50;;;;;;;3.10;1.75;;;;;;;;;;5018572;28;20018;-75
2021/12/15 09:13:17;;;;;;;5.40;1.70;;;;;;;;;;5006902;28;20077;-71
2021/12/15 09:15:43;;;;;;;6.65;2.00;;;;;;;;;;5008296;28;20026;-74
2021/12/15 09:18:11;;;;;;;4.22;2.00;;;;;;;;;;5008638;28;20030;-74
2021/12/15 09:20:40;;;;;;;4.70;2.00;;;;;;;;;;4996534;28;20031;-73
2021/12/15 09:23:08;;;;;;;4.40;2.00;;;;;;;;;;4988990;28;20029;-71
2021/12/15 09:25:34;;;;;;;9.02;2.83;;;;;;;;;;4989204;28;20489;-72
2021/12/15 09:28:01;;;;;;;5.70;2.15;;;;;;;;;;4989666;28;20445;-72
2021/12/15 09:30:28;;;;;;;3.50;2.30;;;;;;;;;;4989724;28;20034;-71
2021/12/15 09:32:55;;;;;;;3.00;2.25;;;;;;;;;;4989576;28;20023;-72
2021/12/15 09:35:22;;;;;;;5.72;2.00;;;;;;;;;;4989568;28;20035;-74
2021/12/15 09:37:49;;;;;;;6.93;2.22;;;;;;;;;;4989893;28;20083;-73
2021/12/15 09:40:17;;;;;;;4.28;1.90;;;;;;;;;;4989719;28;20026;-73
2021/12/15 09:42:43;;;;;;;5.93;2.55;;;;;;;;;;4989283;28;20074;-73
2021/12/15 09:48:03;;;;;;;5.00;2.40;;;;;;;;;;4989321;28;20069;-72
2021/12/15 10:04:24;;;;;;;5.05;1.63;;;;;;;;;;4988544;28;20058;-75
2021/12/15 10:10:41;;;;;;;4.53;1.63;;;;;;;;;;4995048;28;20026;-72
2021/12/15 10:17:26;;;;;;;3.40;1.98;;;;;;;;;;5001514;28;20041;-72
2021/12/15 10:18:13;;;;;;;6.00;2.10;;;;;;;;;;4998186;28;20046;-71
2021/12/15 10:20:40;;;;;;;4.15;1.80;;;;;;;;;;5002505;28;20041;-74
2021/12/15 10:23:08;;;;;;;4.38;1.75;;;;;;;;;;4986097;28;20026;-73
2021/12/15 10:25:48;;;;;;;7.72;1.92;;;;;;;;;;4987453;28;20370;-73
2021/12/15 10:28:14;;;;;;;6.45;2.33;;;;;;;;;;4999433;28;20073;-75
2021/12/15 10:30:44;;;;;;;3.20;1.95;;;;;;;;;;5006720;28;20157;-72
2021/12/15 10:33:10;;;;;;;5.88;2.08;;;;;;;;;;5006656;28;20049;-72
2021/12/15 10:35:36;;;;;;;6.00;1.88;;;;;;;;;;5007998;28;20090;-73
2021/12/15 10:38:18;;;;;;;4.53;2.20;;;;;;;;;;5000125;28;20035;-71
2021/12/15 10:40:47;;;;;;;7.00;3.15;;;;;;;;;;5005962;28;20018;-72
2021/12/15 10:43:14;;;;;;;7.28;2.90;;;;;;;;;;5006322;28;20022;-72
2021/12/15 10:45:44;;;;;;;3.95;1.63;;;;;;;;;;5007492;28;20045;-74
2021/12/15 10:48:20;;;;;;;6.43;2.15;;;;;;;;;;5007285;28;20022;-72
2021/12/15 10:50:48;;;;;;;7.05;2.05;;;;;;;;;;5007591;28;20019;-73
2021/12/15 10:53:14;;;;;;;3.95;1.83;;;;;;;;;;5007232;28;20025;-71
2021/12/15 10:55:40;;;;;;;4.38;1.92;;;;;;;;;;5007320;28;20082;-73
2021/12/15 10:58:25;;;;;;;5.05;1.83;;;;;;;;;;5003436;28;20026;-73
2021/12/15 11:00:51;;;;;;;4.97;1.92;;;;;;;;;;5002834;28;20085;-73
2021/12/15 11:03:23;;;;;;;8.48;2.92;;;;;;;;;;5001798;28;20026;-76
2021/12/15 11:05:49;;;;;;;3.22;2.00;;;;;;;;;;4983276;28;20363;-74
2021/12/15 11:08:20;;;;;;;5.75;2.40;;;;;;;;;;4985542;28;20019;-71
2021/12/15 11:10:46;;;;;;;4.07;1.88;;;;;;;;;;4987242;28;20059;-74
2021/12/15 11:13:14;;;;;;;4.15;1.80;;;;;;;;;;4984957;28;20470;-76
2021/12/15 11:15:48;;;;;;;3.35;1.80;;;;;;;;;;4982782;28;20023;-76
2021/12/15 11:18:19;;;;;;;4.57;2.45;;;;;;;;;;4997865;28;20053;-75
2021/12/15 11:20:49;;;;;;;7.82;2.88;;;;;;;;;;5025277;28;20029;-73
2021/12/15 11:23:22;;;;;;;2.95;1.80;;;;;;;;;;5025090;28;20041;-75
2021/12/15 11:25:55;;;;;;;4.55;1.88;;;;;;;;;;5025052;28;20034;-75
2021/12/15 11:28:23;;;;;;;4.38;1.90;;;;;;;;;;5013170;28;20034;-74
2021/12/15 11:30:49;;;;;;;3.67;1.90;;;;;;;;;;5007327;28;20037;-71
2021/12/15 11:33:17;;;;;;;6.28;2.45;;;;;;;;;;5008182;28;20067;-73
2021/12/15 11:35:49;;;;;;;4.22;2.03;;;;;;;;;;5011597;28;20022;-73
2021/12/15 11:38:26;;;;;;;2.22;1.80;;;;;;;;;;5010525;28;20019;-73
2021/12/15 11:40:58;;;;;;;4.80;2.05;;;;;;;;;;5011079;28;20474;-72
2021/12/15 11:43:37;;;;;;;2.63;1.70;;;;;;;;;;5011289;28;20039;-73
2021/12/15 11:46:05;;;;;;;3.10;2.22;;;;;;;;;;5011627;28;20038;-72
2021/12/15 11:48:33;;;;;;;3.75;2.22;;;;;;;;;;5010868;28;20026;-71
2021/12/15 11:51:01;;;;;;;5.25;2.03;;;;;;;;;;5011256;28;20022;-72
2021/12/15 11:53:32;;;;;;;3.60;1.90;;;;;;;;;;5011085;28;20019;-74
2021/12/15 11:56:31;;;;;;;3.60;2.30;;;;;;;;;;5022674;28;20037;-72
2021/12/15 11:58:59;;;;;;;5.28;2.60;;;;;;;;;;4980083;28;20035;-72
2021/12/15 12:01:43;;;;;;;2.83;1.75;;;;;;;;;;4991387;28;20034;-73
2021/12/15 12:04:10;;;;;;;3.42;2.25;;;;;;;;;;4990877;28;20031;-71
2021/12/15 12:06:36;;;;;;;4.10;1.75;;;;;;;;;;4996068;28;20029;-72
2021/12/15 12:09:03;;;;;;;5.60;1.98;;;;;;;;;;5028349;28;20496;-72
2021/12/15 12:11:29;;;;;;;6.70;3.03;;;;;;;;;;4998101;28;20107;-72
2021/12/15 12:13:59;;;;;;;5.18;2.75;;;;;;;;;;4991242;28;20559;-72
2021/12/15 12:16:25;;;;;;;6.03;1.90;;;;;;;;;;4991785;28;20053;-72
2021/12/15 12:18:52;;;;;;;2.35;1.70;;;;;;;;;;4991181;28;20477;-71
2021/12/15 12:21:18;;;;;;;2.47;1.63;;;;;;;;;;4991598;28;20031;-72
2021/12/15 12:23:49;;;;;;;5.50;2.13;;;;;;;;;;5010095;28;20037;-71
2021/12/15 12:26:16;;;;;;;3.10;2.35;;;;;;;;;;5010105;28;20358;-72
2021/12/15 12:28:46;;;;;;;3.80;2.30;;;;;;;;;;5010439;28;20023;-70
2021/12/15 12:31:12;;;;;;;2.15;1.77;;;;;;;;;;5010094;28;20469;-70
2021/12/15 12:33:38;;;;;;;2.95;2.08;;;;;;;;;;5009089;28;20037;-73
2021/12/15 12:36:09;;;;;;;4.07;1.90;;;;;;;;;;5010111;28;20057;-71
2021/12/15 12:38:37;;;;;;;3.47;1.80;;;;;;;;;;5009641;28;20046;-74
2021/12/15 12:41:06;;;;;;;2.63;1.98;;;;;;;;;;5009778;28;20030;-73
2021/12/15 12:43:59;;;;;;;2.88;2.10;;;;;;;;;;5009765;28;20029;-72
2021/12/15 12:46:42;;;;;;;1.88;1.65;;;;;;;;;;5006496;28;20070;-71
2021/12/15 12:49:28;;;;;;;2.25;1.98;;;;;;;;;;5010098;28;20078;-72
2021/12/15 13:00:20;;;;;;;2.45;1.85;;;;;;;;;;4988583;28;20273;-71
2021/12/15 13:02:55;;;;;;;4.25;2.35;;;;;;;;;;5007768;28;20030;-77
2021/12/15 13:05:30;;;;;;;4.57;2.15;;;;;;;;;;5007686;28;20101;-72
2021/12/15 13:07:57;;;;;;;5.25;2.35;;;;;;;;;;5008261;28;20031;-73
2021/12/15 13:10:43;;;;;;;4.43;1.92;;;;;;;;;;5006595;28;20046;-73
2021/12/15 13:13:13;;;;;;;2.83;2.00;;;;;;;;;;5006830;28;20164;-76
2021/12/15 13:15:40;;;;;;;5.22;2.40;;;;;;;;;;5006966;28;20027;-73
2021/12/15 13:18:11;;;;;;;2.70;2.30;;;;;;;;;;5007129;28;20389;-72
2021/12/15 13:20:38;;;;;;;4.07;2.35;;;;;;;;;;5006794;28;20045;-72
2021/12/15 13:23:50;;;;;;;3.45;1.83;;;;;;;;;;5007530;28;20027;-73
2021/12/15 13:31:06;;;;;;;4.30;3.25;;;;;;;;;;5009805;28;20034;-72
2021/12/15 13:33:32;;;;;;;2.33;2.13;;;;;;;;;;5009306;28;20081;-72
2021/12/15 13:36:04;;;;;;;3.08;1.92;;;;;;;;;;5008965;28;20498;-72
2021/12/15 13:38:45;;;;;;;2.65;2.00;;;;;;;;;;5008869;28;20034;-70
2021/12/15 13:41:44;;;;;;;2.58;2.20;;;;;;;;;;5008601;28;20023;-73
2021/12/15 13:44:16;;;;;;;4.05;2.45;;;;;;;;;;5007979;28;20038;-75
2021/12/15 13:46:45;;;;;;;3.53;2.20;;;;;;;;;;5028295;28;20472;-72
2021/12/15 13:49:30;;;;;;;3.85;2.83;;;;;;;;;;5028441;28;20112;-72
2021/12/15 13:51:56;;;;;;;2.92;2.72;;;;;;;;;;5028597;28;20022;-71
2021/12/15 13:54:22;;;;;;;4.07;2.10;;;;;;;;;;5028202;28;20524;-73
2021/12/15 13:56:50;;;;;;;3.75;2.30;;;;;;;;;;5027071;28;20026;-75
2021/12/15 13:59:33;;;;;;;2.53;2.17;;;;;;;;;;5028069;28;20030;-75
2021/12/15 14:02:14;;;;;;;3.55;1.92;;;;;;;;;;5027989;28;20026;-74
2021/12/15 14:04:46;;;;;;;3.78;2.42;;;;;;;;;;5027264;28;20064;-72
2021/12/15 14:07:31;;;;;;;3.13;2.20;;;;;;;;;;5027900;28;20053;-70
2021/12/15 14:10:12;;;;;;;2.28;1.83;;;;;;;;;;5027730;28;20086;-72
2021/12/15 14:12:45;;;;;;;1.70;1.50;;;;;;;;;;5026980;28;20030;-73
2021/12/15 14:15:26;;;;;;;2.42;1.70;;;;;;;;;;5027200;28;20152;-74
2021/12/15 14:17:59;;;;;;;3.05;1.85;;;;;;;;;;5026519;28;20045;-72
2021/12/15 14:20:26;;;;;;;3.00;1.52;;;;;;;;;;5027818;28;20021;-73
2021/12/15 14:22:55;;;;;;;1.67;1.58;;;;;;;;;;5028003;28;20515;-73
2021/12/15 14:25:22;;;;;;;3.25;1.50;;;;;;;;;;5011784;28;20026;-72
2021/12/15 14:27:48;;;;;;;3.65;1.50;;;;;;;;;;5006518;28;20113;-74
2021/12/15 14:30:14;;;;;;;2.53;1.52;;;;;;;;;;5007837;28;20023;-73
2021/12/15 14:32:40;;;;;;;2.50;1.75;;;;;;;;;;5006803;28;20054;-72
2021/12/15 14:35:16;;;;;;;2.83;1.65;;;;;;;;;;5005139;28;20040;-74
2021/12/15 14:37:42;;;;;;;2.35;1.60;;;;;;;;;;5003393;28;20053;-73
2021/12/15 14:40:08;;;;;;;5.32;1.80;;;;;;;;;;5012731;28;20030;-74
2021/12/15 14:42:38;;;;;;;1.67;1.58;;;;;;;;;;5025687;28;20052;-72
2021/12/15 14:45:05;;;;;;;2.30;1.60;;;;;;;;;;5025161;28;20033;-70
2021/12/15 14:47:35;;;;;;;2.25;1.77;;;;;;;;;;5023770;28;20046;-74
2021/12/15 14:50:13;;;;;;;2.10;1.52;;;;;;;;;;5024732;28;20537;-78
2021/12/15 14:52:43;;;;;;;2.67;1.80;;;;;;;;;;5016558;28;20034;-73
2021/12/15 14:55:20;;;;;;;5.40;2.95;;;;;;;;;;4982526;28;20054;-72
2021/12/15 14:57:46;;;;;;;5.55;1.90;;;;;;;;;;4987357;28;20106;-75
2021/12/15 15:00:14;;;;;;;5.13;2.10;;;;;;;;;;4986614;28;20050;-72
2021/12/15 15:02:43;;;;;;;5.18;3.70;;;;;;;;;;4986993;28;20324;-73
2021/12/15 15:05:39;;;;;;;4.25;3.72;;;;;;;;;;4985910;28;20058;-73
2021/12/15 15:08:09;;;;;;;2.97;2.10;;;;;;;;;;4980725;28;20035;-73
2021/12/15 15:10:39;;;;;;;3.10;2.15;;;;;;;;;;5019883;28;20026;-72
2021/12/15 15:13:05;;;;;;;2.55;1.80;;;;;;;;;;5026863;28;20067;-73
2021/12/15 15:15:34;;;;;;;3.72;2.00;;;;;;;;;;5021315;28;20061;-73
2021/12/15 15:18:24;;;;;;;5.47;3.05;;;;;;;;;;5007192;28;20026;-72
2021/12/15 15:20:56;;;;;;;2.47;1.90;;;;;;;;;;5007708;28;20105;-73
2021/12/15 15:23:24;;;;;;;3.05;2.10;;;;;;;;;;5007289;28;20030;-71
2021/12/15 15:25:52;;;;;;;3.17;2.35;;;;;;;;;;5007127;28;20034;-72
2021/12/15 15:28:23;;;;;;;3.58;2.20;;;;;;;;;;5006897;28;20022;-74
2021/12/15 15:30:51;;;;;;;5.07;2.60;;;;;;;;;;5007119;28;20385;-72
2021/12/15 15:33:19;;;;;;;4.65;2.28;;;;;;;;;;5003408;28;20026;-75
2021/12/15 15:35:51;;;;;;;5.97;3.15;;;;;;;;;;5004371;28;20457;-72
2021/12/15 15:38:23;;;;;;;38.92;17.75;;;;;;;;;;5005100;28;20022;-71
2021/12/15 15:40:53;;;;;;;31.40;13.38;;;;;;;;;;5006225;28;20033;-73
2021/12/15 15:43:32;;;;;;;90.30;35.67;;;;;;;;;;5006103;28;20036;-73
2021/12/15 15:45:58;;;;;;;6.97;5.22;;;;;;;;;;5020436;28;20089;-72
2021/12/15 15:48:26;;;;;;;9.65;7.22;;;;;;;;;;5024249;28;20022;-72
2021/12/15 15:51:01;;;;;;;11.52;8.80;;;;;;;;;;5005008;28;20109;-73
2021/12/15 15:53:27;;;;;;;12.02;9.32;;;;;;;;;;4998861;28;20031;-71
2021/12/15 15:55:56;;;;;;;9.30;7.40;;;;;;;;;;4989657;28;20047;-72
2021/12/15 15:58:22;;;;;;;11.95;9.63;;;;;;;;;;5000289;28;20445;-72
2021/12/15 16:00:53;;;;;;;13.38;11.98;;;;;;;;;;4992979;28;20064;-72
2021/12/15 16:03:22;;;;;;;11.82;9.80;;;;;;;;;;4987273;28;20034;-72
2021/12/15 16:05:48;;;;;;;8.55;7.65;;;;;;;;;;4987107;28;20101;-72
2021/12/15 16:08:15;;;;;;;6.47;5.88;;;;;;;;;;4999461;28;20082;-73
2021/12/15 16:10:44;;;;;;;7.47;6.40;;;;;;;;;;5010236;28;20034;-73
2021/12/15 16:13:12;;;;;;;5.47;4.95;;;;;;;;;;5004437;28;20416;-74
2021/12/15 16:15:49;;;;;;;7.35;6.65;;;;;;;;;;4992725;28;20029;-76
2021/12/15 16:18:26;;;;;;;10.18;8.05;;;;;;;;;;4993070;28;20026;-76
2021/12/15 16:23:28;;;;;;;16.30;10.10;;;;;;;;;;4990021;28;20454;-73
2021/12/15 16:25:56;;;;;;;17.15;11.23;;;;;;;;;;4985048;28;20026;-74
2021/12/15 16:28:22;;;;;;;16.85;8.32;;;;;;;;;;4986514;28;20023;-75